Time;durP1;ratioP1;P1;durP2;ratioP2;P2;SDS_P1;SDS_P2;PMS_P1;PMS_P2;Temp;Humidity;BMP_temperature;BMP_pressure;BME280_temperature;BME280_humidity;BME280_pressure;Samples;Min_cycle;Max_cycle;Signal;HPM_P1;HPM_P2
2023/03/25 00:01:40;;;;;;;;;;;;;;;7.33;82.34;100086.41;4958764;28;20339;-74
2023/03/25 00:04:08;;;;;;;;;;;;;;;7.28;82.50;100080.28;4957589;28;20006;-75
2023/03/25 00:06:33;;;;;;;;;;;;;;;7.23;82.55;100093.56;4929494;28;19974;-74
2023/03/25 00:08:59;;;;;;;;;;;;;;;7.27;82.25;100092.78;4960400;28;20353;-74
2023/03/25 00:11:24;;;;;;;;;;;;;;;7.25;82.55;100078.94;4954076;28;19948;-72
2023/03/25 00:13:53;;;;;;;;;;;;;;;7.29;82.27;100080.00;4959003;28;19964;-74
2023/03/25 00:16:19;;;;;;;;;;;;;;;7.30;82.32;100081.59;4950120;28;19939;-74
2023/03/25 00:18:46;;;;;;;;;;;;;;;7.26;82.21;100080.53;4938124;28;20081;-73
2023/03/25 00:21:12;;;;;;;;;;;;;;;7.23;82.21;100077.59;4958788;28;20101;-74
2023/03/25 00:23:38;;;;;;;;;;;;;;;7.25;82.25;100073.63;4960323;28;20338;-74
2023/03/25 00:26:04;;;;;;;;;;;;;;;7.19;82.12;100072.00;4945923;28;19946;-73
2023/03/25 00:28:33;;;;;;;;;;;;;;;7.19;82.20;100068.53;4953113;28;19969;-73
2023/03/25 00:30:59;;;;;;;;;;;;;;;7.15;82.43;100068.25;4936528;28;20377;-74
2023/03/25 00:33:25;;;;;;;;;;;;;;;7.14;82.28;100065.88;4941118;28;19965;-73
2023/03/25 00:35:53;;;;;;;;;;;;;;;7.10;82.41;100065.56;4937030;28;19942;-72
2023/03/25 00:38:19;;;;;;;;;;;;;;;7.10;82.66;100063.72;4955403;28;19962;-73
2023/03/25 00:40:48;;;;;;;;;;;;;;;7.11;82.55;100056.53;4937822;28;19942;-75
2023/03/25 00:43:13;;;;;;;;;;;;;;;7.11;82.65;100064.50;4946718;28;19939;-74
2023/03/25 00:45:39;;;;;;;;;;;;;;;7.06;82.73;100060.00;4940644;28;20311;-74
2023/03/25 00:48:04;;;;;;;;;;;;;;;7.10;82.62;100055.72;4947481;28;19956;-74
2023/03/25 00:50:30;;;;;;;;;;;;;;;7.14;82.34;100060.53;4942415;28;19967;-74
2023/03/25 00:52:56;;;;;;;;;;;;;;;7.25;82.10;100062.19;4939817;28;19983;-74
2023/03/25 00:55:21;;;;;;;;;;;;;;;7.33;81.88;100057.13;4959151;28;19939;-74
2023/03/25 00:57:47;;;;;;;;;;;;;;;7.39;81.93;100058.72;4957027;28;20469;-74
2023/03/25 01:00:14;;;;;;;;;;;;;;;7.47;81.56;100059.25;4958958;28;19942;-73
2023/03/25 01:02:40;;;;;;;;;;;;;;;7.52;81.27;100057.41;4957059;28;19940;-73
2023/03/25 01:05:08;;;;;;;;;;;;;;;7.62;80.92;100056.59;4943765;28;19940;-73
2023/03/25 01:07:34;;;;;;;;;;;;;;;7.66;80.92;100055.00;4958605;28;20035;-73
2023/03/25 01:10:00;;;;;;;;;;;;;;;7.71;80.46;100062.97;4896397;28;1418488;-74
2023/03/25 01:12:26;;;;;;;;;;;;;;;7.75;80.60;100064.06;4940672;28;19964;-72
2023/03/25 01:14:52;;;;;;;;;;;;;;;7.77;80.40;100059.25;4939119;28;19985;-73
2023/03/25 01:17:18;;;;;;;;;;;;;;;7.74;80.66;100054.47;4957538;28;20038;-73
2023/03/25 01:19:44;;;;;;;;;;;;;;;7.73;80.84;100052.88;4930392;28;20432;-73
2023/03/25 01:22:10;;;;;;;;;;;;;;;7.79;80.55;100061.66;4959170;28;19944;-74
2023/03/25 01:24:35;;;;;;;;;;;;;;;7.79;80.47;100048.31;4954542;28;20067;-74
2023/03/25 01:27:01;;;;;;;;;;;;;;;7.81;80.68;100048.88;4957003;28;19979;-72
2023/03/25 01:29:27;;;;;;;;;;;;;;;7.89;80.37;100046.47;4932948;28;20331;-72
2023/03/25 01:31:56;;;;;;;;;;;;;;;7.91;80.32;100044.31;4946475;28;19935;-74
2023/03/25 01:34:23;;;;;;;;;;;;;;;7.99;79.64;100052.84;4978520;28;19936;-73
2023/03/25 01:36:49;;;;;;;;;;;;;;;8.00;79.68;100041.13;4940198;28;19983;-73
2023/03/25 01:39:17;;;;;;;;;;;;;;;8.07;78.88;100047.78;4943586;28;19999;-73
2023/03/25 01:41:44;;;;;;;;;;;;;;;8.04;79.19;100044.84;4933208;28;19946;-74
2023/03/25 01:44:17;;;;;;;;;;;;;;;7.94;79.34;100038.47;4959064;28;19957;-76
2023/03/25 01:46:44;;;;;;;;;;;;;;;7.91;79.15;100038.97;4948544;28;19934;-73
2023/03/25 01:49:13;;;;;;;;;;;;;;;7.98;79.14;100037.91;4942940;28;19968;-75
2023/03/25 01:51:41;;;;;;;;;;;;;;;8.02;78.97;100038.97;4963704;28;19945;-73
2023/03/25 01:54:07;;;;;;;;;;;;;;;8.07;78.88;100029.09;4946637;28;19947;-74
2023/03/25 01:56:36;;;;;;;;;;;;;;;8.07;78.86;100028.31;4961865;28;20551;-73
2023/03/25 01:59:03;;;;;;;;;;;;;;;8.11;78.64;100029.34;4950714;28;19956;-74
2023/03/25 02:01:30;;;;;;;;;;;;;;;8.07;78.89;100025.66;4947193;28;19940;-73
2023/03/25 02:04:01;;;;;;;;;;;;;;;8.01;78.75;100016.06;4946798;28;19963;-73
2023/03/25 02:06:31;;;;;;;;;;;;;;;8.04;78.72;100010.16;4962113;28;19938;-74
2023/03/25 02:08:57;;;;;;;;;;;;;;;7.98;78.77;100005.91;4924962;28;20087;-74
2023/03/25 02:11:27;;;;;;;;;;;;;;;8.01;78.55;100013.38;4958944;28;19948;-73
2023/03/25 02:13:55;;;;;;;;;;;;;;;8.01;78.41;100016.06;4946340;28;20391;-73
2023/03/25 02:16:25;;;;;;;;;;;;;;;7.99;78.55;100007.50;4978666;28;20276;-72
2023/03/25 02:19:05;;;;;;;;;;;;;;;7.94;78.78;99998.47;4943351;28;20006;-74
2023/03/25 02:21:45;;;;;;;;;;;;;;;7.91;78.90;100003.53;4962654;28;20016;-74
2023/03/25 02:24:16;;;;;;;;;;;;;;;7.97;78.18;99999.00;4963863;28;19962;-74
2023/03/25 02:26:54;;;;;;;;;;;;;;;7.96;78.30;100000.06;4956494;28;19939;-73
2023/03/25 02:29:32;;;;;;;;;;;;;;;8.04;77.77;100005.63;4940317;28;20016;-72
2023/03/25 02:32:25;;;;;;;;;;;;;;;8.02;77.88;100002.44;4963197;28;20023;-73
2023/03/25 02:35:07;;;;;;;;;;;;;;;7.86;78.51;99993.69;4926801;28;19946;-73
2023/03/25 02:37:32;;;;;;;;;;;;;;;7.95;77.77;99996.59;4945998;28;19943;-73
2023/03/25 02:39:58;;;;;;;;;;;;;;;7.88;77.93;99996.09;4943067;28;19960;-73
2023/03/25 02:42:34;;;;;;;;;;;;;;;7.84;78.24;99990.47;4964560;28;19942;-74
2023/03/25 02:45:03;;;;;;;;;;;;;;;7.75;78.59;99986.78;4962653;28;19987;-74
2023/03/25 02:47:32;;;;;;;;;;;;;;;7.81;78.15;99985.69;4964875;28;19936;-73
2023/03/25 02:50:03;;;;;;;;;;;;;;;7.81;78.22;99980.38;4968754;28;19963;-73
2023/03/25 02:52:37;;;;;;;;;;;;;;;7.83;78.33;99980.88;4963797;28;19945;-72
2023/03/25 02:55:03;;;;;;;;;;;;;;;7.86;78.13;99982.22;4944132;28;20319;-74
2023/03/25 02:57:31;;;;;;;;;;;;;;;7.84;78.18;99966.47;4958534;28;19989;-73
2023/03/25 02:59:58;;;;;;;;;;;;;;;7.88;78.38;99980.88;4935410;28;19954;-72
2023/03/25 03:02:25;;;;;;;;;;;;;;;7.89;78.11;99977.13;4960154;28;19941;-73
2023/03/25 03:04:51;;;;;;;;;;;;;;;7.92;77.87;99976.63;4944231;28;20010;-75
2023/03/25 03:07:28;;;;;;;;;;;;;;;7.92;77.97;99963.28;4961295;28;20074;-75
2023/03/25 03:09:54;;;;;;;;;;;;;;;7.98;77.77;99971.25;4943086;28;19959;-74
2023/03/25 03:12:20;;;;;;;;;;;;;;;7.93;78.10;99972.88;4956315;28;19985;-74
2023/03/25 03:14:49;;;;;;;;;;;;;;;8.03;77.53;99976.56;4942939;28;20587;-75
2023/03/25 03:17:24;;;;;;;;;;;;;;;8.04;77.51;99964.84;4943989;28;19945;-73
2023/03/25 03:19:53;;;;;;;;;;;;;;;7.97;78.10;99964.31;4963023;28;19954;-74
2023/03/25 03:22:24;;;;;;;;;;;;;;;8.03;77.33;99965.91;4957036;28;19945;-74
2023/03/25 03:24:53;;;;;;;;;;;;;;;7.97;77.51;99953.66;4957873;28;20874;-73
2023/03/25 03:27:32;;;;;;;;;;;;;;;8.01;76.60;99958.19;4960773;28;19935;-73
2023/03/25 03:30:09;;;;;;;;;;;;;;;7.88;77.71;99958.75;4955993;28;19963;-72
2023/03/25 03:32:44;;;;;;;;;;;;;;;7.83;77.89;99972.09;4961684;28;20006;-71
2023/03/25 03:35:18;;;;;;;;;;;;;;;7.80;77.61;99962.78;4962614;28;19943;-72
2023/03/25 03:37:46;;;;;;;;;;;;;;;7.81;77.94;99972.38;4957079;28;19947;-74
2023/03/25 03:40:15;;;;;;;;;;;;;;;7.91;77.21;99968.88;4967734;28;19948;-71
2023/03/25 03:42:46;;;;;;;;;;;;;;;7.90;77.31;99968.06;4932060;28;19946;-73
2023/03/25 03:45:15;;;;;;;;;;;;;;;7.96;77.16;99954.72;4939570;28;19948;-74
2023/03/25 03:47:46;;;;;;;;;;;;;;;7.94;77.68;99966.47;4949706;28;19956;-72
2023/03/25 03:50:19;;;;;;;;;;;;;;;8.01;76.90;99958.19;4951023;28;19970;-73
2023/03/25 03:53:05;;;;;;;;;;;;;;;8.02;77.17;99967.78;4983453;28;19946;-73
2023/03/25 03:56:00;;;;;;;;;;;;;;;7.98;77.22;99965.91;4960642;28;19941;-73
2023/03/25 03:58:32;;;;;;;;;;;;;;;8.01;77.11;99963.53;4978010;28;20539;-74
2023/03/25 04:01:02;;;;;;;;;;;;;;;7.98;77.05;99963.25;4943500;28;19930;-73
2023/03/25 04:03:33;;;;;;;;;;;;;;;7.94;77.12;99963.81;4959261;28;20306;-74
2023/03/25 04:06:08;;;;;;;;;;;;;;;7.94;77.06;99960.34;4957873;28;19934;-72
2023/03/25 04:08:41;;;;;;;;;;;;;;;7.93;77.16;99959.53;4957072;28;19956;-73
2023/03/25 04:11:11;;;;;;;;;;;;;;;7.95;76.98;99961.94;4958612;28;20364;-74
2023/03/25 04:13:40;;;;;;;;;;;;;;;7.94;77.40;99963.81;4957364;28;19984;-72
2023/03/25 04:16:06;;;;;;;;;;;;;;;7.93;77.54;99961.41;4957654;28;19938;-74
2023/03/25 04:18:32;;;;;;;;;;;;;;;7.93;77.12;99959.53;4961023;28;19969;-73
2023/03/25 04:20:59;;;;;;;;;;;;;;;7.92;77.28;99957.94;4961181;28;19941;-73
2023/03/25 04:23:30;;;;;;;;;;;;;;;7.91;77.14;99961.66;4936291;28;19952;-74
2023/03/25 04:25:56;;;;;;;;;;;;;;;7.80;77.71;99965.44;4961985;28;19928;-74
2023/03/25 04:28:24;;;;;;;;;;;;;;;7.63;78.14;99964.94;4959612;28;20797;-73
2023/03/25 04:30:54;;;;;;;;;;;;;;;7.56;78.58;99977.72;4954761;28;20426;-72
2023/03/25 04:33:23;;;;;;;;;;;;;;;7.53;78.54;99972.94;4939222;28;19944;-74
2023/03/25 04:35:50;;;;;;;;;;;;;;;7.58;78.30;99962.25;4959522;28;19934;-74
2023/03/25 04:38:17;;;;;;;;;;;;;;;7.54;78.65;99963.88;4961390;28;19953;-72
2023/03/25 04:40:45;;;;;;;;;;;;;;;7.71;77.81;99975.03;4959426;28;19946;-72
2023/03/25 04:43:11;;;;;;;;;;;;;;;7.76;77.89;99974.25;4946995;28;19964;-73
2023/03/25 04:45:37;;;;;;;;;;;;;;;7.75;78.34;99975.31;4978964;28;19947;-73
2023/03/25 04:48:04;;;;;;;;;;;;;;;7.69;79.01;99971.84;4940455;28;19957;-73
2023/03/25 04:50:31;;;;;;;;;;;;;;;7.50;80.39;99978.78;4957333;28;19959;-73
2023/03/25 04:52:59;;;;;;;;;;;;;;;7.42;81.56;99974.81;4960390;28;19986;-72
2023/03/25 04:55:24;;;;;;;;;;;;;;;7.45;80.65;99965.47;4958720;28;20612;-72
2023/03/25 04:57:51;;;;;;;;;;;;;;;7.47;80.11;99953.50;4939972;28;20020;-75
2023/03/25 05:00:18;;;;;;;;;;;;;;;7.43;81.05;99963.06;4939574;28;20521;-75
2023/03/25 05:02:48;;;;;;;;;;;;;;;7.57;79.64;99958.00;4958938;28;19961;-72
2023/03/25 05:05:17;;;;;;;;;;;;;;;7.63;78.98;99956.94;4956090;28;19950;-72
2023/03/25 05:07:44;;;;;;;;;;;;;;;7.64;78.71;99948.66;4958119;28;19938;-72
2023/03/25 05:10:10;;;;;;;;;;;;;;;7.68;78.80;99954.25;4944259;28;19975;-71
2023/03/25 05:12:35;;;;;;;;;;;;;;;7.70;78.46;99956.66;4964668;28;20484;-74
2023/03/25 05:15:04;;;;;;;;;;;;;;;7.65;78.67;99958.28;4962051;28;19939;-74
2023/03/25 05:17:29;;;;;;;;;;;;;;;7.72;78.16;99954.50;4955677;28;19945;-73
2023/03/25 05:19:55;;;;;;;;;;;;;;;7.72;77.85;99959.84;4960805;28;19960;-74
2023/03/25 05:22:21;;;;;;;;;;;;;;;7.76;77.80;99961.72;4959449;28;19990;-73
2023/03/25 05:24:47;;;;;;;;;;;;;;;7.78;77.87;99953.44;4958598;28;19932;-73
2023/03/25 05:27:12;;;;;;;;;;;;;;;7.82;77.58;99960.63;4944635;28;19936;-72
2023/03/25 05:29:38;;;;;;;;;;;;;;;7.83;77.36;99956.88;4962889;28;19970;-73
2023/03/25 05:32:04;;;;;;;;;;;;;;;7.81;77.63;99961.69;4960724;28;19997;-73
2023/03/25 05:34:30;;;;;;;;;;;;;;;7.86;76.57;99947.56;4962647;28;20033;-73
2023/03/25 05:36:55;;;;;;;;;;;;;;;7.90;76.17;99954.75;4958282;28;20320;-73
2023/03/25 05:39:21;;;;;;;;;;;;;;;7.88;76.83;99967.56;4955713;28;19957;-73
2023/03/25 05:41:47;;;;;;;;;;;;;;;7.80;77.31;99968.09;4945604;28;19938;-73
2023/03/25 05:44:14;;;;;;;;;;;;;;;7.84;76.88;99971.81;4956384;28;20035;-73
2023/03/25 05:46:39;;;;;;;;;;;;;;;7.79;77.33;99992.34;4954333;28;19996;-74
2023/03/25 05:49:05;;;;;;;;;;;;;;;7.80;77.11;99981.44;4941009;28;20695;-73
2023/03/25 05:51:36;;;;;;;;;;;;;;;7.82;77.30;99981.16;4964886;28;20547;-71
2023/03/25 05:54:01;;;;;;;;;;;;;;;7.82;78.34;99992.63;4938723;28;20367;-73
2023/03/25 05:56:26;;;;;;;;;;;;;;;7.70;78.58;100001.97;4959984;28;20372;-73
2023/03/25 05:58:52;;;;;;;;;;;;;;;7.68;79.00;99996.91;4956321;28;20049;-73
2023/03/25 06:01:19;;;;;;;;;;;;;;;7.63;79.43;99997.69;4960027;28;20044;-74
2023/03/25 06:03:44;;;;;;;;;;;;;;;7.66;79.26;99997.19;4957843;28;20003;-72
2023/03/25 06:06:12;;;;;;;;;;;;;;;7.66;79.45;99994.50;4962241;28;20463;-74
2023/03/25 06:08:42;;;;;;;;;;;;;;;7.68;79.24;99999.56;4959432;28;19952;-73
2023/03/25 06:11:08;;;;;;;;;;;;;;;7.74;79.31;99995.03;4947026;28;19965;-73
2023/03/25 06:13:36;;;;;;;;;;;;;;;7.82;79.17;99992.63;4963048;28;19935;-74
2023/03/25 06:16:08;;;;;;;;;;;;;;;7.89;78.33;100003.00;4958215;28;20039;-73
2023/03/25 06:18:37;;;;;;;;;;;;;;;7.93;79.13;99999.53;4965291;28;20100;-74
2023/03/25 06:21:03;;;;;;;;;;;;;;;7.91;80.00;100000.84;4964726;28;20039;-74
2023/03/25 06:23:28;;;;;;;;;;;;;;;7.82;79.44;100008.59;4963529;28;20499;-74
2023/03/25 06:25:54;;;;;;;;;;;;;;;7.79;79.93;100009.16;4949545;28;19938;-72
2023/03/25 06:28:22;;;;;;;;;;;;;;;7.81;79.93;100009.69;4947569;28;19960;-73
2023/03/25 06:30:47;;;;;;;;;;;;;;;7.79;80.03;100014.50;4959748;28;20283;-73
2023/03/25 06:33:13;;;;;;;;;;;;;;;7.79;80.11;100019.81;4980624;28;19945;-73
2023/03/25 06:35:41;;;;;;;;;;;;;;;7.83;80.02;100015.53;4962752;28;20048;-72
2023/03/25 06:38:11;;;;;;;;;;;;;;;7.81;80.57;100017.69;4966091;28;20014;-74
2023/03/25 06:40:53;;;;;;;;;;;;;;;7.88;80.17;100015.53;4966042;28;19986;-73
2023/03/25 06:43:19;;;;;;;;;;;;;;;7.86;80.34;100025.69;4963835;28;19992;-73
2023/03/25 06:46:07;;;;;;;;;;;;;;;7.92;79.80;100007.78;4955111;28;19957;-73
2023/03/25 06:48:55;;;;;;;;;;;;;;;8.06;79.78;100008.03;4956515;28;19962;-74
2023/03/25 06:51:22;;;;;;;;;;;;;;;8.13;79.28;100024.56;4961372;28;20833;-75
2023/03/25 06:53:48;;;;;;;;;;;;;;;8.28;78.93;100015.72;4958097;28;20424;-75
2023/03/25 06:56:13;;;;;;;;;;;;;;;8.19;79.69;100018.13;4946465;28;19944;-73
2023/03/25 06:58:42;;;;;;;;;;;;;;;8.07;81.03;100020.31;4973384;28;19957;-74
2023/03/25 07:01:07;;;;;;;;;;;;;;;7.79;82.49;100017.16;4962021;28;19939;-69
2023/03/25 07:03:36;;;;;;;;;;;;;;;7.68;83.65;100023.56;4958058;28;21055;-73
2023/03/25 07:06:03;;;;;;;;;;;;;;;7.66;84.36;100023.03;4960994;28;19937;-73
2023/03/25 07:08:28;;;;;;;;;;;;;;;7.64;83.62;100017.16;4941800;28;20073;-73
2023/03/25 07:10:59;;;;;;;;;;;;;;;7.65;83.72;100016.91;4960397;28;20496;-73
2023/03/25 07:13:24;;;;;;;;;;;;;;;7.84;83.68;100017.13;4962836;28;20314;-75
2023/03/25 07:15:53;;;;;;;;;;;;;;;8.14;83.50;100007.50;4940295;28;19948;-73
2023/03/25 07:18:19;;;;;;;;;;;;;;;8.35;81.20;100016.22;4978546;28;19957;-73
2023/03/25 07:20:44;;;;;;;;;;;;;;;8.27;80.19;100014.94;4937868;28;19982;-73
2023/03/25 07:23:10;;;;;;;;;;;;;;;8.18;80.73;100027.19;4957607;28;19998;-73
2023/03/25 07:25:36;;;;;;;;;;;;;;;8.32;80.89;100017.56;4956451;28;19940;-73
2023/03/25 07:28:01;;;;;;;;;;;;;;;8.43;79.60;100019.16;4947148;28;20361;-76
2023/03/25 07:30:34;;;;;;;;;;;;;;;8.54;79.36;100024.47;4946709;28;20048;-72
2023/03/25 07:33:00;;;;;;;;;;;;;;;8.44;77.88;100012.75;4956097;28;20046;-75
2023/03/25 07:35:25;;;;;;;;;;;;;;;8.42;78.72;100022.09;4940932;28;19949;-73
2023/03/25 07:37:51;;;;;;;;;;;;;;;8.42;78.36;100014.91;4941015;28;19942;-73
2023/03/25 07:40:16;;;;;;;;;;;;;;;8.50;77.37;100018.06;4956860;28;20395;-73
2023/03/25 07:42:42;;;;;;;;;;;;;;;8.54;76.87;100019.13;4947330;28;20037;-72
2023/03/25 07:45:22;;;;;;;;;;;;;;;8.58;77.45;100025.50;4960921;28;19952;-72
2023/03/25 07:47:49;;;;;;;;;;;;;;;8.47;76.48;100020.22;4963621;28;20299;-74
2023/03/25 07:50:18;;;;;;;;;;;;;;;8.56;76.89;100022.31;4965178;28;20017;-72
2023/03/25 07:52:44;;;;;;;;;;;;;;;8.55;77.50;100020.72;4961338;28;19966;-73
2023/03/25 07:55:10;;;;;;;;;;;;;;;8.62;77.25;100021.22;4957581;28;20032;-72
2023/03/25 07:57:36;;;;;;;;;;;;;;;8.95;76.49;100004.50;4962109;28;19952;-72
2023/03/25 08:00:04;;;;;;;;;;;;;;;8.96;75.93;100021.31;4979275;28;20699;-71
2023/03/25 08:02:38;;;;;;;;;;;;;;;9.03;76.34;100022.59;4960491;28;20332;-72
2023/03/25 08:05:04;;;;;;;;;;;;;;;9.23;75.02;100023.56;4949508;28;19941;-72
2023/03/25 08:07:31;;;;;;;;;;;;;;;9.18;75.31;100023.56;4962864;28;19941;-73
2023/03/25 08:09:56;;;;;;;;;;;;;;;9.32;74.47;100024.53;4978542;28;20075;-73
2023/03/25 08:12:21;;;;;;;;;;;;;;;9.15;74.20;100029.50;4961669;28;20963;-71
2023/03/25 08:14:47;;;;;;;;;;;;;;;8.87;75.59;100023.75;4959947;28;19953;-73
2023/03/25 08:17:13;;;;;;;;;;;;;;;8.63;77.87;100022.81;4961945;28;19944;-74
2023/03/25 08:19:38;;;;;;;;;;;;;;;8.57;78.73;100031.91;4965146;28;19960;-74
2023/03/25 08:22:04;;;;;;;;;;;;;;;8.78;77.43;100030.75;4942222;28;20315;-74
2023/03/25 08:24:31;;;;;;;;;;;;;;;9.04;76.11;100028.75;4961226;28;19946;-73
2023/03/25 08:26:59;;;;;;;;;;;;;;;9.27;74.66;100037.94;4960648;28;20027;-73
2023/03/25 08:29:25;;;;;;;;;;;;;;;9.26;74.58;100029.13;4961065;28;19963;-74
2023/03/25 08:31:51;;;;;;;;;;;;;;;9.32;74.77;100029.09;4962516;28;20006;-72
2023/03/25 08:34:18;;;;;;;;;;;;;;;9.66;73.59;100034.44;4961938;28;20566;-74
2023/03/25 08:36:44;;;;;;;;;;;;;;;9.66;72.95;100035.22;4959745;28;19935;-74
2023/03/25 08:39:15;;;;;;;;;;;;;;;9.46;72.75;100030.84;4964473;28;19956;-74
2023/03/25 08:41:41;;;;;;;;;;;;;;;9.68;73.25;100033.06;4959459;28;19938;-74
2023/03/25 08:44:07;;;;;;;;;;;;;;;9.66;72.92;100029.09;4961400;28;19959;-74
2023/03/25 08:46:32;;;;;;;;;;;;;;;9.52;72.20;100029.72;4952182;28;19936;-73
2023/03/25 08:48:58;;;;;;;;;;;;;;;9.53;72.04;100019.84;4954739;28;20027;-74
2023/03/25 08:51:23;;;;;;;;;;;;;;;9.38;71.93;100018.09;4944715;28;19943;-73
2023/03/25 08:53:49;;;;;;;;;;;;;;;9.38;73.12;100026.09;4944761;28;19932;-74
2023/03/25 08:56:14;;;;;;;;;;;;;;;9.25;73.15;100021.38;4960011;28;20002;-74
2023/03/25 08:58:40;;;;;;;;;;;;;;;9.18;73.47;100023.56;4965098;28;20042;-72
2023/03/25 09:01:06;;;;;;;;;;;;;;;8.88;75.52;100013.88;4959624;28;19948;-73
2023/03/25 09:03:31;;;;;;;;;;;;;;;8.40;77.75;100035.72;4959047;28;19938;-73
2023/03/25 09:05:57;;;;;;;;;;;;;;;8.13;81.20;100033.38;4950562;28;20057;-74
2023/03/25 09:08:23;;;;;;;;;;;;;;;7.94;81.70;100037.66;4962678;28;20053;-72
2023/03/25 09:10:48;;;;;;;;;;;;;;;7.64;82.08;100043.78;4960952;28;19960;-73
2023/03/25 09:13:14;;;;;;;;;;;;;;;7.39;85.00;100066.72;4946361;28;20788;-72
2023/03/25 09:15:39;;;;;;;;;;;;;;;7.19;83.99;100058.69;4958547;28;19950;-73
2023/03/25 09:18:06;;;;;;;;;;;;;;;7.08;85.58;100063.19;4959404;28;19963;-73
2023/03/25 09:20:32;;;;;;;;;;;;;;;7.10;86.23;100062.91;4948322;28;19957;-72
2023/03/25 09:22:58;;;;;;;;;;;;;;;7.26;86.28;100061.09;4961812;28;19932;-73
2023/03/25 09:25:24;;;;;;;;;;;;;;;7.23;85.77;100058.94;4962148;28;19943;-73
2023/03/25 09:27:50;;;;;;;;;;;;;;;7.18;85.19;100057.09;4961541;28;19946;-73
2023/03/25 09:30:15;;;;;;;;;;;;;;;7.02;86.50;100071.41;4964711;28;19963;-74
2023/03/25 09:32:41;;;;;;;;;;;;;;;6.72;85.63;100064.16;4960218;28;20476;-73
2023/03/25 09:35:06;;;;;;;;;;;;;;;6.54;86.35;100068.84;4961488;28;20037;-73
2023/03/25 09:37:32;;;;;;;;;;;;;;;6.49;86.23;100057.38;4962403;28;19936;-72
2023/03/25 09:39:58;;;;;;;;;;;;;;;6.45;86.92;100048.31;4944608;28;20049;-73
2023/03/25 09:42:39;;;;;;;;;;;;;;;6.49;87.07;100046.75;4963476;28;19942;-73
2023/03/25 09:45:10;;;;;;;;;;;;;;;6.43;86.41;100055.75;4956526;28;19996;-72
2023/03/25 09:47:36;;;;;;;;;;;;;;;6.43;87.76;100050.44;4952840;28;19940;-73
2023/03/25 09:50:05;;;;;;;;;;;;;;;6.42;86.01;100060.25;4979170;28;20014;-73
2023/03/25 09:52:37;;;;;;;;;;;;;;;6.39;86.97;100054.69;4948966;28;19951;-73
2023/03/25 09:55:05;;;;;;;;;;;;;;;6.36;85.08;100053.31;4961354;28;19952;-73
2023/03/25 09:57:32;;;;;;;;;;;;;;;6.29;84.65;100053.56;4963815;28;19996;-72
2023/03/25 09:59:59;;;;;;;;;;;;;;;6.40;84.42;100056.28;4966423;28;19958;-73
2023/03/25 10:02:51;;;;;;;;;;;;;;;6.54;83.49;100065.38;4965088;28;20295;-71
2023/03/25 10:05:22;;;;;;;;;;;;;;;6.86;84.28;100059.13;4965793;28;19954;-73
2023/03/25 10:08:07;;;;;;;;;;;;;;;7.02;82.70;100068.75;4964895;28;19944;-73
2023/03/25 10:10:32;;;;;;;;;;;;;;;7.19;83.57;100064.03;4960127;28;20065;-74
2023/03/25 10:13:21;;;;;;;;;;;;;;;7.34;83.50;100060.56;4961016;28;20031;-73
2023/03/25 10:16:04;;;;;;;;;;;;;;;7.47;83.93;100057.41;4963213;28;19935;-73
2023/03/25 10:18:31;;;;;;;;;;;;;;;7.67;84.39;100048.63;4965805;28;19956;-74
2023/03/25 10:21:09;;;;;;;;;;;;;;;8.05;84.14;100052.56;4957587;28;20055;-73
2023/03/25 10:23:38;;;;;;;;;;;;;;;8.32;83.02;100052.22;4964336;28;19934;-73
2023/03/25 10:26:08;;;;;;;;;;;;;;;8.53;83.18;100049.53;4956001;28;19939;-74
2023/03/25 10:28:37;;;;;;;;;;;;;;;8.66;81.94;100043.59;4958507;28;19954;-73
2023/03/25 10:31:04;;;;;;;;;;;;;;;8.93;80.46;100052.03;4943647;28;19961;-73
2023/03/25 10:33:41;;;;;;;;;;;;;;;8.99;79.21;100048.25;4942923;28;20029;-74
2023/03/25 10:36:11;;;;;;;;;;;;;;;9.15;79.21;100051.66;4964767;28;19938;-73
2023/03/25 10:38:37;;;;;;;;;;;;;;;9.38;78.99;100055.50;4947022;28;19966;-73
2023/03/25 10:41:21;;;;;;;;;;;;;;;9.79;76.55;100049.84;4946488;28;19946;-73
2023/03/25 10:43:47;;;;;;;;;;;;;;;9.70;76.61;100057.69;4956227;28;20388;-72
2023/03/25 10:46:24;;;;;;;;;;;;;;;9.51;77.50;100044.19;4947987;28;19959;-73
2023/03/25 10:48:49;;;;;;;;;;;;;;;9.26;75.93;100036.34;4963324;28;19988;-72
2023/03/25 10:51:16;;;;;;;;;;;;;;;9.48;76.84;100033.22;4953448;28;19995;-72
2023/03/25 10:53:44;;;;;;;;;;;;;;;10.03;74.40;100037.31;4949509;28;20374;-73
2023/03/25 10:56:14;;;;;;;;;;;;;;;10.13;73.54;100039.88;4948875;28;19946;-73
2023/03/25 10:58:41;;;;;;;;;;;;;;;9.66;72.72;100035.22;4959573;28;19985;-72
2023/03/25 11:01:16;;;;;;;;;;;;;;;9.60;74.05;100047.03;4964062;28;19942;-72
2023/03/25 11:03:42;;;;;;;;;;;;;;;9.13;74.72;100050.31;4964843;28;20047;-74
2023/03/25 11:06:28;;;;;;;;;;;;;;;8.89;75.35;100048.31;4940157;28;20023;-72
2023/03/25 11:08:57;;;;;;;;;;;;;;;8.71;77.55;100049.72;4964153;28;20039;-71
2023/03/25 11:11:31;;;;;;;;;;;;;;;8.63;77.97;100052.19;4974078;28;19939;-72
2023/03/25 11:13:56;;;;;;;;;;;;;;;8.32;77.39;100057.56;4960874;28;19942;-72
2023/03/25 11:16:22;;;;;;;;;;;;;;;8.15;79.84;100070.44;4965654;28;19943;-72
2023/03/25 11:18:51;;;;;;;;;;;;;;;7.93;80.82;100068.06;4943902;28;20643;-72
2023/03/25 11:21:17;;;;;;;;;;;;;;;7.73;80.57;100071.53;4939634;28;19939;-73
2023/03/25 11:23:44;;;;;;;;;;;;;;;7.47;82.37;100085.91;4948440;28;19952;-73
2023/03/25 11:26:15;;;;;;;;;;;;;;;7.26;84.07;100077.09;4959431;28;19943;-73
2023/03/25 11:28:43;;;;;;;;;;;;;;;7.22;85.13;100082.13;4969178;28;20369;-72
2023/03/25 11:31:12;;;;;;;;;;;;;;;7.24;84.87;100087.97;4981115;28;20413;-72
2023/03/25 11:33:38;;;;;;;;;;;;;;;7.24;85.18;100089.84;4945541;28;20388;-74
2023/03/25 11:36:10;;;;;;;;;;;;;;;7.19;84.61;100095.19;4962059;28;20016;-72
2023/03/25 11:38:37;;;;;;;;;;;;;;;7.13;85.22;100091.69;4964966;28;20317;-73
2023/03/25 11:41:03;;;;;;;;;;;;;;;7.29;84.17;100088.00;4937745;28;19936;-72
2023/03/25 11:43:31;;;;;;;;;;;;;;;7.15;83.93;100081.56;4963129;28;19935;-71
2023/03/25 11:46:06;;;;;;;;;;;;;;;7.23;83.08;100081.06;4943565;28;19953;-72
2023/03/25 11:48:36;;;;;;;;;;;;;;;7.35;82.92;100073.63;4946603;28;20002;-72
2023/03/25 11:51:02;;;;;;;;;;;;;;;7.57;83.09;100076.03;4942616;28;19960;-71
2023/03/25 11:53:30;;;;;;;;;;;;;;;7.71;81.93;100080.84;4957887;28;19947;-71
2023/03/25 11:56:10;;;;;;;;;;;;;;;7.98;82.48;100069.91;4948753;28;19946;-72
2023/03/25 11:58:38;;;;;;;;;;;;;;;8.08;81.72;100059.25;4959661;28;19955;-71
2023/03/25 12:01:05;;;;;;;;;;;;;;;8.06;79.49;100056.03;4959449;28;20380;-71
2023/03/25 12:03:32;;;;;;;;;;;;;;;8.16;80.70;100058.69;4964737;28;19948;-72
2023/03/25 12:06:03;;;;;;;;;;;;;;;8.55;79.75;100053.53;4962404;28;19970;-72
2023/03/25 12:08:39;;;;;;;;;;;;;;;8.76;79.95;100051.59;4960135;28;19955;-74
2023/03/25 12:11:13;;;;;;;;;;;;;;;8.78;78.68;100041.44;4958880;28;20364;-74
2023/03/25 12:13:51;;;;;;;;;;;;;;;8.93;78.27;100037.88;4946303;28;19934;-74
2023/03/25 12:16:22;;;;;;;;;;;;;;;8.74;78.78;100035.84;4956248;28;19946;-74
2023/03/25 12:18:54;;;;;;;;;;;;;;;8.83;78.41;100033.41;4958971;28;19953;-73
2023/03/25 12:21:29;;;;;;;;;;;;;;;8.91;78.13;100030.16;4961104;28;19943;-73
2023/03/25 12:24:06;;;;;;;;;;;;;;;9.00;77.63;100028.47;4958368;28;19946;-73
2023/03/25 12:26:50;;;;;;;;;;;;;;;9.47;77.02;100028.97;4957545;28;20012;-74
2023/03/25 12:29:36;;;;;;;;;;;;;;;9.61;75.97;100021.09;4960817;28;20507;-73
2023/03/25 12:32:08;;;;;;;;;;;;;;;9.59;76.20;100018.72;4956947;28;19996;-72
2023/03/25 12:34:34;;;;;;;;;;;;;;;9.83;77.44;100018.78;4944614;28;20307;-73
2023/03/25 12:37:18;;;;;;;;;;;;;;;9.78;75.60;100016.16;4960216;28;19960;-73
2023/03/25 12:40:05;;;;;;;;;;;;;;;9.67;77.14;100014.66;4962335;28;20146;-74
2023/03/25 12:42:43;;;;;;;;;;;;;;;9.48;76.91;100011.84;4960125;28;19937;-73
2023/03/25 12:45:14;;;;;;;;;;;;;;;9.69;77.44;100005.28;4962135;28;19976;-73
2023/03/25 12:47:41;;;;;;;;;;;;;;;9.66;77.82;100002.34;4964333;28;19942;-73
2023/03/25 12:50:18;;;;;;;;;;;;;;;9.42;75.76;100007.66;4929033;28;20336;-74
2023/03/25 12:52:59;;;;;;;;;;;;;;;9.14;78.22;100006.50;4981380;28;20147;-74
2023/03/25 12:55:44;;;;;;;;;;;;;;;8.77;80.39;100012.34;4957000;28;20306;-73
2023/03/25 12:58:24;;;;;;;;;;;;;;;8.72;80.71;100023.84;4954293;28;20245;-72
2023/03/25 13:01:22;;;;;;;;;;;;;;;8.55;80.83;100016.19;4960701;28;20512;-72